createdAt,value
2023-04-18T00:00:19.643Z,10.34
2023-04-18T00:03:25.204Z,10.34
2023-04-18T00:06:32.638Z,10.36
2023-04-18T00:09:37.867Z,10.36
2023-04-18T00:12:42.786Z,10.39
2023-04-18T00:15:50.788Z,10.39
2023-04-18T00:18:56.601Z,10.40
2023-04-18T00:22:02.676Z,10.41
2023-04-18T00:25:09.439Z,10.41
2023-04-18T00:28:16.976Z,10.42
2023-04-18T00:31:23.795Z,10.43
2023-04-18T00:34:30.640Z,10.43
2023-04-18T00:37:36.230Z,10.42
2023-04-18T00:40:41.581Z,10.42
2023-04-18T00:43:46.785Z,10.39
2023-04-18T00:46:52.594Z,10.37
2023-04-18T00:49:59.728Z,10.37
2023-04-18T00:53:06.280Z,10.37
2023-04-18T00:56:11.623Z,10.37
2023-04-18T00:59:17.594Z,10.37
2023-04-18T01:02:24.219Z,10.35
2023-04-18T01:05:30.478Z,10.34
2023-04-18T01:08:35.578Z,10.28
2023-04-18T01:11:41.193Z,10.19
2023-04-18T01:14:49.512Z,10.11
2023-04-18T01:17:55.471Z,10.03
2023-04-18T01:21:07.072Z,9.96
2023-04-18T01:24:22.959Z,9.89
2023-04-18T01:27:29.879Z,9.85
2023-04-18T01:30:36.032Z,9.82
2023-04-18T01:33:42.761Z,9.79
2023-04-18T01:36:51.163Z,9.74
2023-04-18T01:39:58.715Z,9.67
2023-04-18T01:43:05.543Z,9.58
2023-04-18T01:46:11.823Z,9.51
2023-04-18T01:49:18.136Z,9.47
2023-04-18T01:52:23.945Z,9.47
2023-04-18T01:55:32.534Z,9.47
2023-04-18T01:58:39.401Z,9.48
2023-04-18T02:01:45.814Z,9.49
2023-04-18T02:04:52.842Z,9.50
2023-04-18T02:07:58.249Z,9.53
2023-04-18T02:11:05.542Z,9.53
2023-04-18T02:14:14.178Z,9.53
2023-04-18T02:17:20.974Z,9.55
2023-04-18T02:20:26.810Z,9.54
2023-04-18T02:23:33.370Z,9.55
2023-04-18T02:26:40.165Z,9.55
2023-04-18T02:29:45.913Z,9.57
2023-04-18T02:32:51.805Z,9.57
2023-04-18T02:35:58.123Z,9.56
2023-04-18T02:39:04.792Z,9.57
2023-04-18T02:42:10.737Z,9.54
2023-04-18T02:45:16.937Z,9.55
2023-04-18T02:48:22.987Z,9.54
2023-04-18T02:51:29.548Z,9.54
2023-04-18T02:54:35.828Z,9.53
2023-04-18T02:57:43.814Z,9.52
2023-04-18T03:00:49.558Z,9.50
2023-04-18T03:04:11.188Z,9.49
2023-04-18T03:07:20.212Z,9.51
2023-04-18T03:10:27.093Z,9.50
2023-04-18T03:13:26.827Z,9.51
2023-04-18T03:16:32.642Z,9.52
2023-04-18T03:19:38.723Z,9.51
2023-04-18T03:22:45.001Z,9.49
2023-04-18T03:25:53.477Z,9.51
2023-04-18T03:28:59.872Z,9.51
2023-04-18T03:32:05.356Z,9.53
2023-04-18T03:35:10.399Z,9.53
2023-04-18T03:38:15.328Z,9.52
2023-04-18T03:41:21.816Z,9.54
2023-04-18T03:44:27.723Z,9.55
2023-04-18T03:47:36.933Z,9.55
2023-04-18T03:50:43.375Z,9.56
2023-04-18T03:53:49.636Z,9.56
2023-04-18T03:56:54.610Z,9.60
2023-04-18T04:00:00.695Z,9.65
2023-04-18T04:03:09.133Z,9.68
2023-04-18T04:06:18.142Z,9.72
2023-04-18T04:09:24.021Z,9.77
2023-04-18T04:12:29.783Z,9.83
2023-04-18T04:15:36.172Z,9.86
2023-04-18T04:18:43.770Z,9.91
2023-04-18T04:21:50.429Z,9.95
2023-04-18T04:24:56.863Z,9.97
2023-04-18T04:28:04.378Z,9.99
2023-04-18T04:31:14.898Z,10.05
2023-04-18T04:34:21.164Z,10.09
2023-04-18T04:37:27.655Z,10.12
2023-04-18T04:40:36.020Z,10.11
2023-04-18T04:43:47.792Z,10.13
2023-04-18T04:46:56.552Z,10.15
2023-04-18T04:50:04.266Z,10.16
2023-04-18T04:53:10.266Z,10.17
2023-04-18T04:56:18.436Z,10.19
2023-04-18T04:59:23.789Z,10.22
2023-04-18T05:02:32.776Z,10.23
2023-04-18T05:05:38.735Z,10.25
2023-04-18T05:08:50.315Z,10.28
2023-04-18T05:11:58.023Z,10.29
2023-04-18T05:15:06.094Z,10.33
2023-04-18T05:18:11.768Z,10.37
2023-04-18T05:21:17.588Z,10.38
2023-04-18T05:24:24.054Z,10.41
2023-04-18T05:27:30.137Z,10.48
2023-04-18T05:30:35.666Z,10.52
2023-04-18T05:33:49.341Z,10.58
2023-04-18T05:36:58.327Z,10.63
2023-04-18T05:40:04.174Z,10.70
2023-04-18T05:43:09.565Z,10.78
2023-04-18T05:46:15.745Z,10.88
2023-04-18T05:49:21.967Z,11.01
2023-04-18T05:52:30.067Z,11.16
2023-04-18T05:55:36.539Z,11.35
2023-04-18T05:58:43.048Z,11.53
2023-04-18T06:01:49.853Z,11.64
2023-04-18T06:04:58.442Z,11.77
2023-04-18T06:08:04.988Z,11.87
2023-04-18T06:11:11.409Z,11.99
2023-04-18T06:14:22.685Z,12.12
2023-04-18T06:17:28.301Z,12.15
2023-04-18T06:20:35.712Z,12.25
2023-04-18T06:23:51.481Z,12.30
2023-04-18T06:26:59.032Z,12.37
2023-04-18T06:30:04.614Z,12.48
2023-04-18T06:33:28.174Z,12.61
2023-04-18T06:36:36.684Z,12.76
2023-04-18T06:39:59.086Z,12.89
2023-04-18T06:43:04.070Z,13.04
2023-04-18T06:46:11.091Z,13.03
2023-04-18T06:49:16.923Z,13.11
2023-04-18T06:52:21.668Z,13.20
2023-04-18T06:55:28.146Z,13.31
2023-04-18T06:58:33.957Z,13.43
2023-04-18T07:01:40.077Z,13.46
2023-04-18T07:04:46.413Z,13.62
2023-04-18T07:07:51.879Z,13.78
2023-04-18T07:10:59.544Z,13.95
2023-04-18T07:14:04.689Z,14.23
2023-04-18T07:17:09.802Z,14.42
2023-04-18T07:20:16.642Z,14.53
2023-04-18T07:23:22.920Z,14.62
2023-04-18T07:26:29.114Z,14.71
2023-04-18T07:29:34.474Z,14.77
2023-04-18T07:32:40.752Z,14.85
2023-04-18T07:35:47.599Z,15.00
2023-04-18T07:38:54.692Z,15.12
2023-04-18T07:41:59.861Z,15.16
2023-04-18T07:45:06.374Z,15.17
2023-04-18T07:48:14.393Z,15.24
2023-04-18T07:51:19.659Z,15.27
2023-04-18T07:54:24.893Z,15.30
2023-04-18T07:57:30.781Z,15.29
2023-04-18T08:00:37.959Z,15.27
2023-04-18T08:03:44.396Z,15.31
2023-04-18T08:06:50.751Z,15.50
2023-04-18T08:09:58.358Z,15.76
2023-04-18T08:13:03.724Z,15.90
2023-04-18T08:16:10.663Z,15.97
2023-04-18T08:19:18.527Z,16.00
2023-04-18T08:22:26.076Z,16.00
2023-04-18T08:25:34.092Z,15.99
2023-04-18T08:28:48.192Z,15.95
2023-04-18T08:31:56.568Z,16.00
2023-04-18T08:35:04.054Z,16.08
2023-04-18T08:38:11.630Z,16.15
2023-04-18T08:41:18.266Z,16.18
2023-04-18T08:44:24.241Z,16.11
2023-04-18T08:47:32.109Z,16.05
2023-04-18T08:50:37.444Z,15.91
2023-04-18T08:53:42.388Z,15.86
2023-04-18T08:56:49.515Z,15.84
2023-04-18T08:59:57.407Z,15.87
2023-04-18T09:03:04.619Z,16.02
2023-04-18T09:06:29.498Z,16.23
2023-04-18T09:09:37.394Z,16.41
2023-04-18T09:12:45.907Z,16.53
2023-04-18T09:15:52.895Z,16.67
2023-04-18T09:19:04.708Z,16.81
2023-04-18T09:22:16.860Z,16.97
2023-04-18T09:25:23.356Z,17.09
2023-04-18T09:28:44.605Z,17.25
2023-04-18T09:31:50.517Z,17.40
2023-04-18T09:35:04.020Z,17.67
2023-04-18T09:38:09.033Z,17.95
2023-04-18T09:41:25.934Z,18.13
2023-04-18T09:44:31.590Z,18.11
2023-04-18T09:47:36.773Z,18.16
2023-04-18T09:50:43.354Z,18.30
2023-04-18T09:53:57.307Z,18.50
2023-04-18T09:57:03.291Z,18.64
2023-04-18T10:00:31.866Z,18.86
2023-04-18T10:03:37.295Z,19.09
2023-04-18T10:06:48.187Z,19.31
2023-04-18T10:10:02.050Z,19.49
2023-04-18T10:13:19.626Z,19.62
2023-04-18T10:16:26.965Z,19.59
2023-04-18T10:19:40.244Z,19.57
2023-04-18T10:22:47.607Z,19.53
2023-04-18T10:26:03.449Z,19.51
2023-04-18T10:29:13.673Z,19.60
2023-04-18T10:32:22.546Z,19.61
2023-04-18T10:35:27.596Z,19.61
2023-04-18T10:38:36.257Z,19.63
2023-04-18T10:41:45.519Z,19.61
2023-04-18T10:44:52.043Z,19.72
2023-04-18T10:47:59.601Z,19.86
2023-04-18T10:51:33.868Z,19.92
2023-04-18T10:55:11.185Z,20.00
2023-04-18T10:58:18.361Z,20.11
2023-04-18T11:01:23.793Z,20.23
2023-04-18T11:04:30.106Z,20.27
2023-04-18T11:07:55.956Z,20.29
2023-04-18T11:11:05.099Z,20.25
2023-04-18T11:14:13.328Z,20.41
2023-04-18T11:17:40.125Z,20.73
2023-04-18T11:21:05.733Z,20.93
2023-04-18T11:24:14.192Z,21.04
2023-04-18T11:27:25.743Z,20.86
2023-04-18T11:30:31.720Z,20.55
2023-04-18T11:33:37.678Z,20.32
2023-04-18T11:36:45.842Z,20.16
2023-04-18T11:39:59.159Z,20.03
2023-04-18T11:43:04.546Z,20.01
2023-04-18T11:46:12.753Z,20.11
2023-04-18T11:49:19.549Z,20.23
2023-04-18T11:52:27.792Z,20.36
2023-04-18T11:55:36.510Z,20.52
2023-04-18T11:58:49.592Z,20.56
2023-04-18T12:01:53.841Z,20.60
2023-04-18T12:05:13.041Z,20.67
2023-04-18T12:08:29.820Z,20.71
2023-04-18T12:11:36.394Z,20.74
2023-04-18T12:14:42.533Z,20.79
2023-04-18T12:17:50.477Z,20.79
2023-04-18T12:21:04.891Z,20.77
2023-04-18T12:24:12.065Z,20.97
2023-04-18T12:27:19.368Z,21.23
2023-04-18T12:30:30.373Z,21.44
2023-04-18T12:33:36.109Z,21.46
2023-04-18T12:36:42.965Z,21.26
2023-04-18T12:39:48.718Z,21.05
2023-04-18T12:42:55.325Z,20.92
2023-04-18T12:46:04.068Z,20.82
2023-04-18T12:49:09.967Z,20.63
2023-04-18T12:52:16.077Z,20.40
2023-04-18T12:55:22.681Z,20.28
2023-04-18T12:58:31.072Z,20.14
2023-04-18T13:01:36.128Z,20.01
2023-04-18T13:04:42.319Z,19.97
2023-04-18T13:07:49.540Z,19.90
2023-04-18T13:10:59.025Z,19.81
2023-04-18T13:14:06.297Z,19.71
2023-04-18T13:17:12.573Z,19.62
2023-04-18T13:20:20.153Z,19.49
2023-04-18T13:23:26.826Z,19.37
2023-04-18T13:26:31.866Z,19.22
2023-04-18T13:29:36.608Z,19.12
2023-04-18T13:32:44.294Z,19.07
2023-04-18T13:35:50.731Z,19.12
2023-04-18T13:38:56.678Z,19.10
2023-04-18T13:42:04.094Z,18.99
2023-04-18T13:45:10.208Z,18.97
2023-04-18T13:48:16.531Z,18.97
2023-04-18T13:51:24.048Z,19.01
2023-04-18T13:54:30.779Z,19.22
2023-04-18T13:57:39.074Z,19.65
2023-04-18T14:00:47.282Z,20.10
2023-04-18T14:03:54.008Z,20.42
2023-04-18T14:07:01.496Z,20.38
2023-04-18T14:10:08.164Z,20.21
2023-04-18T14:13:14.990Z,20.08
2023-04-18T14:16:22.024Z,20.11
2023-04-18T14:19:28.046Z,20.17
2023-04-18T14:22:35.117Z,20.20
2023-04-18T14:25:40.228Z,20.26
2023-04-18T14:28:46.919Z,20.26
2023-04-18T14:31:51.838Z,20.28
2023-04-18T14:35:00.954Z,20.49
2023-04-18T14:38:07.192Z,20.64
2023-04-18T14:41:13.379Z,20.72
2023-04-18T14:44:20.727Z,20.95
2023-04-18T14:47:29.528Z,21.57
2023-04-18T14:50:35.082Z,22.10
2023-04-18T14:53:41.943Z,22.36
2023-04-18T14:56:49.401Z,22.17
2023-04-18T15:00:00.461Z,22.21
2023-04-18T15:03:08.917Z,22.16
2023-04-18T15:06:13.334Z,22.17
2023-04-18T15:09:18.570Z,22.36
2023-04-18T15:12:24.999Z,22.62
2023-04-18T15:15:32.660Z,22.58
2023-04-18T15:18:38.642Z,22.73
2023-04-18T15:21:45.761Z,22.75
2023-04-18T15:24:51.839Z,22.64
2023-04-18T15:27:58.277Z,22.83
2023-04-18T15:31:03.230Z,22.94
2023-04-18T15:34:10.864Z,22.86
2023-04-18T15:37:17.511Z,22.71
2023-04-18T15:40:26.421Z,22.27
2023-04-18T15:43:34.806Z,21.73
2023-04-18T15:46:41.886Z,21.75
2023-04-18T15:49:48.521Z,22.00
2023-04-18T15:52:55.046Z,22.12
2023-04-18T15:56:00.105Z,22.04
2023-04-18T15:59:05.274Z,22.19
2023-04-18T16:02:13.474Z,22.31
2023-04-18T16:05:21.332Z,22.34
2023-04-18T16:08:28.324Z,22.26
2023-04-18T16:11:36.018Z,22.07
2023-04-18T16:14:41.098Z,21.79
2023-04-18T16:17:46.216Z,21.48
2023-04-18T16:20:53.928Z,20.94
2023-04-18T16:23:59.087Z,20.43
2023-04-18T16:27:06.328Z,20.00
2023-04-18T16:30:12.538Z,19.58
2023-04-18T16:33:19.235Z,19.17
2023-04-18T16:36:26.101Z,18.85
2023-04-18T16:39:32.404Z,18.48
2023-04-18T16:42:38.709Z,18.14
2023-04-18T16:45:46.489Z,17.84
2023-04-18T16:48:52.592Z,17.57
2023-04-18T16:51:58.544Z,17.29
2023-04-18T16:55:04.150Z,17.04
2023-04-18T16:58:11.799Z,16.79
2023-04-18T17:01:16.967Z,16.56
2023-04-18T17:04:23.375Z,16.33
2023-04-18T17:07:30.322Z,16.16
2023-04-18T17:10:35.556Z,16.00
2023-04-18T17:13:43.790Z,15.84
2023-04-18T17:16:54.891Z,15.67
2023-04-18T17:20:02.322Z,15.52
2023-04-18T17:23:08.353Z,15.38
2023-04-18T17:26:15.567Z,15.22
2023-04-18T17:29:22.700Z,15.10
2023-04-18T17:32:30.739Z,14.97
2023-04-18T17:35:36.997Z,14.83
2023-04-18T17:38:43.818Z,14.72
2023-04-18T17:41:53.461Z,14.64
2023-04-18T17:45:00.395Z,14.58
2023-04-18T17:48:07.182Z,14.52
2023-04-18T17:51:11.928Z,14.49
2023-04-18T17:54:21.258Z,14.45
2023-04-18T17:57:28.117Z,14.44
2023-04-18T18:00:34.371Z,14.40
2023-04-18T18:03:40.648Z,14.36
2023-04-18T18:06:47.107Z,14.31
2023-04-18T18:09:55.043Z,14.26
2023-04-18T18:13:02.605Z,14.18
2023-04-18T18:16:07.801Z,14.09
2023-04-18T18:19:14.872Z,14.01
2023-04-18T18:22:22.738Z,13.92
2023-04-18T18:25:28.068Z,13.86
2023-04-18T18:28:34.135Z,13.80
2023-04-18T18:31:39.859Z,13.74
2023-04-18T18:34:47.102Z,13.69
2023-04-18T18:37:55.060Z,13.65
2023-04-18T18:41:03.668Z,13.60
2023-04-18T18:44:09.624Z,13.56
2023-04-18T18:47:15.885Z,13.51
2023-04-18T18:50:21.399Z,13.46
2023-04-18T18:53:27.319Z,13.42
2023-04-18T18:56:32.944Z,13.36
2023-04-18T18:59:39.651Z,13.33
2023-04-18T19:02:48.450Z,13.31
2023-04-18T19:05:55.589Z,13.30
2023-04-18T19:09:02.754Z,13.27
2023-04-18T19:12:09.305Z,13.25
2023-04-18T19:15:16.999Z,13.23
2023-04-18T19:18:26.160Z,13.17
2023-04-18T19:21:31.849Z,13.09
2023-04-18T19:24:39.272Z,13.01
2023-04-18T19:27:46.383Z,12.91
2023-04-18T19:30:54.969Z,12.81
2023-04-18T19:34:01.669Z,12.72
2023-04-18T19:37:09.533Z,12.62
2023-04-18T19:40:15.323Z,12.53
2023-04-18T19:43:21.647Z,12.43
2023-04-18T19:46:28.521Z,12.32
2023-04-18T19:49:36.529Z,12.23
2023-04-18T19:52:44.486Z,12.14
2023-04-18T19:55:52.243Z,12.04
2023-04-18T19:58:58.185Z,11.98
2023-04-18T20:02:06.523Z,11.91
2023-04-18T20:05:13.616Z,11.85
2023-04-18T20:08:20.892Z,11.77
2023-04-18T20:11:27.999Z,11.69
2023-04-18T20:14:34.048Z,11.61
2023-04-18T20:17:40.795Z,11.53
2023-04-18T20:20:47.082Z,11.45
2023-04-18T20:23:53.000Z,11.39
2023-04-18T20:26:59.475Z,11.34
2023-04-18T20:30:07.013Z,11.29
2023-04-18T20:33:14.402Z,11.25
2023-04-18T20:36:21.349Z,11.20
2023-04-18T20:39:27.248Z,11.17
2023-04-18T20:42:33.767Z,11.12
2023-04-18T20:45:41.806Z,11.08
2023-04-18T20:48:50.734Z,11.03
2023-04-18T20:51:57.169Z,10.99
2023-04-18T20:55:03.767Z,10.95
2023-04-18T20:58:11.841Z,10.91
2023-04-18T21:01:17.298Z,10.88
2023-04-18T21:04:24.542Z,10.85
2023-04-18T21:07:31.214Z,10.83
2023-04-18T21:10:36.793Z,10.79
2023-04-18T21:13:47.583Z,10.76
2023-04-18T21:16:55.682Z,10.74
2023-04-18T21:20:03.008Z,10.69
2023-04-18T21:23:09.442Z,10.66
2023-04-18T21:26:15.578Z,10.63
2023-04-18T21:29:21.677Z,10.61
2023-04-18T21:32:28.979Z,10.58
2023-04-18T21:35:36.407Z,10.54
2023-04-18T21:38:42.229Z,10.51
2023-04-18T21:41:48.172Z,10.47
2023-04-18T21:44:53.201Z,10.44
2023-04-18T21:48:00.445Z,10.41
2023-04-18T21:51:10.185Z,10.36
2023-04-18T21:54:16.622Z,10.32
2023-04-18T21:57:23.816Z,10.28
2023-04-18T22:00:31.691Z,10.25
2023-04-18T22:03:38.334Z,10.20
2023-04-18T22:06:44.836Z,10.15
2023-04-18T22:09:52.109Z,10.11
2023-04-18T22:13:00.146Z,10.07
2023-04-18T22:16:05.234Z,10.04
2023-04-18T22:19:12.888Z,9.99
2023-04-18T22:22:18.474Z,9.96
2023-04-18T22:25:24.721Z,9.93
2023-04-18T22:28:35.098Z,9.89
2023-04-18T22:31:42.092Z,9.85
2023-04-18T22:34:48.622Z,9.78
2023-04-18T22:37:49.471Z,9.71
2023-04-18T22:40:55.801Z,9.65
2023-04-18T22:44:02.158Z,9.57
2023-04-18T22:47:07.817Z,9.50
2023-04-18T22:50:13.674Z,9.42
2023-04-18T22:53:18.975Z,9.38
2023-04-18T22:56:25.327Z,9.33
2023-04-18T22:59:31.121Z,9.29
2023-04-18T23:02:38.010Z,9.24
2023-04-18T23:05:44.762Z,9.22
2023-04-18T23:08:51.399Z,9.20
2023-04-18T23:11:57.562Z,9.19
2023-04-18T23:15:04.350Z,9.17
2023-04-18T23:18:09.357Z,9.15
2023-04-18T23:21:15.532Z,9.12
2023-04-18T23:24:22.766Z,9.10
2023-04-18T23:27:28.291Z,9.07
2023-04-18T23:30:34.371Z,9.03
2023-04-18T23:33:41.695Z,9.00
2023-04-18T23:36:46.983Z,9.00
2023-04-18T23:39:54.943Z,8.97
2023-04-18T23:43:01.290Z,8.96
2023-04-18T23:46:07.618Z,8.95
2023-04-18T23:49:14.212Z,8.93
2023-04-18T23:52:20.953Z,8.92
2023-04-18T23:55:28.665Z,8.90
2023-04-18T23:58:35.695Z,8.89
